createdAt,value
2018-09-11T00:02:11.945Z,10.77
2018-09-11T00:04:42.578Z,10.03
2018-09-11T00:07:12.681Z,8.87
2018-09-11T00:09:42.781Z,10.03
2018-09-11T00:12:12.800Z,9.67
2018-09-11T00:14:42.765Z,8.40
2018-09-11T00:17:13.017Z,8.50
2018-09-11T00:19:42.977Z,8.57
2018-09-11T00:22:13.777Z,8.53
2018-09-11T00:24:43.739Z,8.73
2018-09-11T00:27:13.673Z,9.63
2018-09-11T00:29:43.701Z,8.30
2018-09-11T00:32:13.708Z,10.30
2018-09-11T00:34:43.785Z,8.20
2018-09-11T00:37:13.826Z,7.80
2018-09-11T00:39:43.776Z,8.43
2018-09-11T00:42:13.772Z,8.80
2018-09-11T00:44:43.815Z,7.80
2018-09-11T00:47:13.821Z,7.17
2018-09-11T00:49:43.829Z,6.90
2018-09-11T00:52:13.861Z,7.17
2018-09-11T00:54:43.941Z,9.13
2018-09-11T00:57:14.046Z,7.20
2018-09-11T00:59:44.100Z,7.93
2018-09-11T01:02:14.156Z,9.60
2018-09-11T01:04:44.190Z,7.03
2018-09-11T01:07:14.249Z,7.13
2018-09-11T01:09:44.284Z,7.50
2018-09-11T01:12:14.282Z,7.67
2018-09-11T01:14:44.218Z,6.97
2018-09-11T01:17:14.270Z,8.13
2018-09-11T01:19:44.310Z,7.97
2018-09-11T01:22:14.337Z,5.83
2018-09-11T01:24:44.397Z,6.87
2018-09-11T01:27:14.398Z,6.37
2018-09-11T01:29:44.451Z,8.97
2018-09-11T01:32:14.465Z,10.10
2018-09-11T01:34:44.539Z,6.87
2018-09-11T01:37:14.593Z,7.30
2018-09-11T01:39:44.529Z,8.33
2018-09-11T01:42:14.638Z,7.43
2018-09-11T01:44:44.708Z,7.40
2018-09-11T01:47:14.774Z,6.70
2018-09-11T01:49:44.835Z,6.90
2018-09-11T01:52:15.501Z,7.70
2018-09-11T01:54:45.570Z,5.87
2018-09-11T01:57:15.597Z,11.73
2018-09-11T01:59:45.659Z,6.57
2018-09-11T02:02:15.696Z,9.30
2018-09-11T02:04:45.721Z,8.93
2018-09-11T02:07:15.799Z,6.00
2018-09-11T02:09:45.895Z,6.13
2018-09-11T02:12:15.857Z,6.47
2018-09-11T02:14:45.860Z,5.70
2018-09-11T02:17:15.890Z,5.17
2018-09-11T02:19:46.842Z,6.30
2018-09-11T02:22:16.867Z,5.23
2018-09-11T02:24:46.955Z,8.63
2018-09-11T02:27:16.943Z,8.20
2018-09-11T02:29:47.022Z,7.40
2018-09-11T02:32:17.250Z,4.60
2018-09-11T02:34:48.364Z,6.30
2018-09-11T02:37:18.409Z,7.27
2018-09-11T02:39:48.450Z,4.90
2018-09-11T02:42:18.495Z,7.97
2018-09-11T02:44:48.579Z,4.70
2018-09-11T02:47:18.614Z,5.27
2018-09-11T02:49:48.568Z,4.90
2018-09-11T02:52:18.505Z,5.87
2018-09-11T02:54:48.580Z,5.43
2018-09-11T02:57:18.693Z,7.10
2018-09-11T02:59:48.737Z,4.17
2018-09-11T03:02:18.778Z,6.13
2018-09-11T03:04:48.823Z,4.00
2018-09-11T03:07:19.102Z,7.20
2018-09-11T03:09:49.201Z,5.70
2018-09-11T03:12:19.242Z,9.00
2018-09-11T03:14:49.385Z,5.17
2018-09-11T03:17:19.389Z,5.60
2018-09-11T03:19:50.393Z,5.37
2018-09-11T03:22:20.441Z,4.43
2018-09-11T03:24:50.476Z,7.23
2018-09-11T03:27:20.590Z,6.10
2018-09-11T03:29:50.628Z,6.70
2018-09-11T03:32:20.625Z,5.47
2018-09-11T03:34:51.057Z,3.70
2018-09-11T03:37:21.409Z,4.63
2018-09-11T03:39:51.476Z,5.40
2018-09-11T03:42:21.437Z,6.07
2018-09-11T03:44:51.528Z,7.00
2018-09-11T03:47:21.569Z,4.23
2018-09-11T03:49:52.166Z,5.07
2018-09-11T03:52:22.260Z,4.23
2018-09-11T03:54:52.445Z,4.20
2018-09-11T03:57:22.507Z,6.67
2018-09-11T03:59:53.245Z,6.60
2018-09-11T04:02:23.228Z,6.73
2018-09-11T04:04:53.193Z,4.53
2018-09-11T04:07:23.250Z,5.77
2018-09-11T04:09:54.645Z,8.13
2018-09-11T04:12:24.733Z,7.37
2018-09-11T04:14:54.781Z,4.13
2018-09-11T04:17:31.772Z,4.63
2018-09-11T04:20:02.215Z,5.73
2018-09-11T04:22:34.944Z,6.43
2018-09-11T04:25:06.644Z,7.27
2018-09-11T04:27:38.487Z,7.10
2018-09-11T04:30:13.732Z,7.50
2018-09-11T04:32:46.621Z,7.73
2018-09-11T04:35:17.805Z,8.57
2018-09-11T04:37:49.936Z,5.10
2018-09-11T04:40:23.320Z,5.07
2018-09-11T04:42:59.358Z,5.90
2018-09-11T04:45:33.895Z,8.80
2018-09-11T04:48:05.834Z,7.90
2018-09-11T04:50:38.247Z,10.80
2018-09-11T04:53:09.661Z,5.27
2018-09-11T04:55:41.677Z,5.90
2018-09-11T04:58:14.404Z,6.70
2018-09-11T05:00:46.592Z,10.33
2018-09-11T05:03:20.327Z,5.67
2018-09-11T05:05:51.252Z,7.23
2018-09-11T05:08:21.680Z,4.63
2018-09-11T05:10:52.990Z,9.20
2018-09-11T05:13:24.349Z,5.33
2018-09-11T05:15:55.790Z,6.40
2018-09-11T05:18:26.628Z,4.33
2018-09-11T05:20:57.317Z,8.10
2018-09-11T05:23:28.262Z,7.67
2018-09-11T05:25:58.353Z,6.83
2018-09-11T05:28:29.793Z,9.17
2018-09-11T05:30:59.916Z,6.93
2018-09-11T05:33:29.975Z,4.27
2018-09-11T05:36:00.654Z,6.93
2018-09-11T05:38:31.146Z,5.57
2018-09-11T05:41:01.211Z,6.20
2018-09-11T05:43:31.269Z,7.00
2018-09-11T05:46:02.001Z,8.03
2018-09-11T05:48:32.161Z,7.17
2018-09-11T05:51:03.022Z,5.93
2018-09-11T05:53:33.152Z,7.10
2018-09-11T05:56:03.253Z,7.70
2018-09-11T05:58:33.460Z,8.43
2018-09-11T06:01:04.288Z,5.23
2018-09-11T06:03:34.458Z,7.97
2018-09-11T06:06:04.592Z,8.57
2018-09-11T06:08:35.377Z,4.43
2018-09-11T06:11:05.520Z,6.60
2018-09-11T06:13:35.664Z,4.73
2018-09-11T06:16:05.819Z,5.50
2018-09-11T06:18:35.981Z,4.43
2018-09-11T06:21:06.168Z,8.43
2018-09-11T06:23:36.377Z,6.13
2018-09-11T06:26:06.505Z,5.43
2018-09-11T06:28:36.689Z,7.27
2018-09-11T06:31:07.089Z,4.70
2018-09-11T06:33:37.224Z,8.07
2018-09-11T06:36:07.488Z,4.80
2018-09-11T06:38:37.589Z,4.73
2018-09-11T06:41:07.808Z,5.77
2018-09-11T06:43:38.784Z,9.30
2018-09-11T06:46:08.924Z,8.03
2018-09-11T06:48:39.184Z,5.53
2018-09-11T06:51:09.316Z,8.83
2018-09-11T06:53:40.752Z,7.80
2018-09-11T06:56:11.008Z,5.63
2018-09-11T06:58:41.120Z,7.87
2018-09-11T07:01:11.853Z,8.70
2018-09-11T07:03:41.980Z,9.70
2018-09-11T07:06:13.324Z,5.83
2018-09-11T07:08:43.456Z,7.50
2018-09-11T07:11:14.293Z,6.60
2018-09-11T07:13:44.464Z,4.37
2018-09-11T07:16:15.310Z,4.53
2018-09-11T07:18:45.434Z,5.23
2018-09-11T07:21:15.508Z,7.37
2018-09-11T07:23:46.116Z,6.33
2018-09-11T07:26:16.260Z,5.80
2018-09-11T07:28:46.586Z,5.57
2018-09-11T07:31:17.332Z,7.07
2018-09-11T07:33:47.472Z,7.37
2018-09-11T07:36:18.247Z,8.80
2018-09-11T07:38:49.377Z,8.33
2018-09-11T07:41:19.539Z,8.93
2018-09-11T07:43:50.324Z,7.90
2018-09-11T07:46:20.493Z,10.57
2018-09-11T07:48:50.645Z,5.67
2018-09-11T07:51:20.864Z,8.90
2018-09-11T07:53:51.033Z,7.97
2018-09-11T07:56:22.138Z,10.47
2018-09-11T07:58:53.244Z,6.20
2018-09-11T08:01:30.066Z,4.57
2018-09-11T08:04:01.400Z,13.63
2018-09-11T08:06:32.109Z,5.53
2018-09-11T08:09:03.228Z,10.47
2018-09-11T08:11:34.113Z,8.20
2018-09-11T08:14:04.331Z,7.73
2018-09-11T08:16:35.182Z,4.43
2018-09-11T08:19:05.302Z,6.87
2018-09-11T08:21:35.979Z,5.37
2018-09-11T08:24:06.173Z,6.93
2018-09-11T08:26:36.316Z,10.17
2018-09-11T08:29:06.492Z,9.40
2018-09-11T08:31:36.676Z,10.83
2018-09-11T08:34:06.864Z,9.23
2018-09-11T08:36:37.441Z,7.20
2018-09-11T08:39:09.062Z,8.40
2018-09-11T08:41:39.319Z,8.97
2018-09-11T08:44:10.032Z,6.30
2018-09-11T08:46:40.772Z,6.10
2018-09-11T08:49:11.406Z,7.67
2018-09-11T08:51:41.569Z,6.37
2018-09-11T08:54:12.466Z,5.30
2018-09-11T08:56:43.404Z,8.30
2018-09-11T08:59:13.508Z,7.37
2018-09-11T09:01:43.648Z,6.93
2018-09-11T09:04:13.761Z,7.73
2018-09-11T09:06:43.904Z,8.83
2018-09-11T09:09:14.661Z,9.23
2018-09-11T09:11:44.775Z,9.90
2018-09-11T09:14:15.837Z,5.03
2018-09-11T09:16:45.984Z,5.10
2018-09-11T09:19:16.755Z,6.33
2018-09-11T09:21:46.900Z,14.47
2018-09-11T09:24:17.079Z,5.40
2018-09-11T09:26:47.196Z,10.27
2018-09-11T09:29:17.353Z,7.20
2018-09-11T09:31:47.497Z,10.30
2018-09-11T09:34:17.869Z,8.30
2018-09-11T09:36:48.850Z,7.57
2018-09-11T09:39:19.167Z,7.50
2018-09-11T09:41:50.819Z,9.17
2018-09-11T09:44:21.000Z,10.90
2018-09-11T09:46:52.063Z,8.43
2018-09-11T09:49:22.176Z,9.47
2018-09-11T09:51:52.800Z,8.07
2018-09-11T09:54:23.002Z,9.70
2018-09-11T09:56:53.112Z,9.50
2018-09-11T09:59:23.804Z,10.00
2018-09-11T10:01:59.297Z,9.33
2018-09-11T10:04:30.368Z,13.63
2018-09-11T10:07:01.496Z,8.33
2018-09-11T10:09:31.652Z,11.20
2018-09-11T10:12:01.832Z,11.80
2018-09-11T10:14:32.287Z,8.17
2018-09-11T10:17:03.429Z,7.70
2018-09-11T10:19:34.448Z,11.07
2018-09-11T10:22:05.160Z,11.47
2018-09-11T10:24:35.812Z,10.23
2018-09-11T10:27:06.041Z,9.93
2018-09-11T10:29:36.129Z,11.73
2018-09-11T10:32:07.416Z,6.10
2018-09-11T10:34:37.556Z,8.03
2018-09-11T10:37:08.784Z,6.27
2018-09-11T10:39:39.492Z,8.13
2018-09-11T10:42:09.669Z,10.17
2018-09-11T10:44:41.989Z,10.83
2018-09-11T10:47:12.229Z,10.93
2018-09-11T10:49:42.320Z,11.70
2018-09-11T10:52:12.486Z,5.83
2018-09-11T10:54:43.150Z,7.57
2018-09-11T10:57:13.426Z,8.20
2018-09-11T10:59:44.105Z,6.83
2018-09-11T11:02:15.188Z,9.83
2018-09-11T11:04:45.394Z,8.33
2018-09-11T11:07:16.987Z,12.40
2018-09-11T11:09:47.100Z,12.30
2018-09-11T11:12:17.284Z,9.97
2018-09-11T11:14:47.380Z,11.60
2018-09-11T11:17:17.553Z,11.10
2018-09-11T11:19:47.912Z,8.60
2018-09-11T11:22:18.316Z,10.07
2018-09-11T11:24:50.065Z,8.40
2018-09-11T11:27:20.246Z,13.50
2018-09-11T11:29:50.414Z,10.87
2018-09-11T11:32:21.261Z,11.33
2018-09-11T11:34:51.408Z,12.70
2018-09-11T11:37:22.394Z,7.57
2018-09-11T11:39:52.533Z,7.50
2018-09-11T11:42:23.332Z,11.13
2018-09-11T11:44:54.151Z,8.40
2018-09-11T11:47:24.788Z,9.53
2018-09-11T11:49:55.709Z,9.20
2018-09-11T11:52:25.880Z,12.43
2018-09-11T11:54:56.058Z,6.63
2018-09-11T11:57:26.175Z,10.87
2018-09-11T11:59:57.968Z,9.33
2018-09-11T12:02:28.679Z,9.37
2018-09-11T12:04:59.365Z,11.03
2018-09-11T12:07:30.491Z,8.17
2018-09-11T12:10:00.673Z,8.70
2018-09-11T12:12:31.140Z,7.67
2018-09-11T12:15:01.308Z,8.23
2018-09-11T12:17:31.964Z,8.47
2018-09-11T12:20:02.257Z,10.83
2018-09-11T12:22:32.432Z,6.80
2018-09-11T12:25:02.616Z,9.23
2018-09-11T12:27:32.772Z,10.73
2018-09-11T12:30:03.529Z,13.10
2018-09-11T12:32:34.241Z,7.87
2018-09-11T12:35:04.481Z,11.90
2018-09-11T12:37:34.565Z,9.27
2018-09-11T12:40:05.564Z,5.87
2018-09-11T12:42:35.734Z,9.33
2018-09-11T12:45:05.956Z,9.40
2018-09-11T12:47:37.124Z,9.30
2018-09-11T12:50:07.008Z,14.03
2018-09-11T12:52:37.673Z,9.57
2018-09-11T12:55:07.996Z,11.70
2018-09-11T12:57:38.677Z,9.90
2018-09-11T13:00:09.710Z,6.47
2018-09-11T13:02:40.353Z,8.03
2018-09-11T13:05:11.052Z,12.77
2018-09-11T13:07:41.812Z,13.20
2018-09-11T13:10:12.017Z,12.33
2018-09-11T13:12:42.293Z,13.47
2018-09-11T13:15:13.397Z,10.23
2018-09-11T13:17:44.233Z,8.87
2018-09-11T13:20:14.388Z,6.70
2018-09-11T13:22:45.256Z,7.97
2018-09-11T13:25:16.153Z,11.37
2018-09-11T13:27:46.877Z,9.43
2018-09-11T13:30:16.996Z,13.40
2018-09-11T13:32:47.176Z,8.77
2018-09-11T13:35:18.023Z,8.60
2018-09-11T13:37:48.184Z,8.30
2018-09-11T13:40:20.683Z,9.77
2018-09-11T13:42:50.821Z,8.53
2018-09-11T13:45:21.613Z,8.63
2018-09-11T13:47:51.830Z,11.87
2018-09-11T13:50:21.905Z,9.67
2018-09-11T13:52:53.231Z,15.43
2018-09-11T13:55:23.348Z,8.80
2018-09-11T13:57:53.502Z,10.27
2018-09-11T14:00:23.670Z,12.30
2018-09-11T14:02:53.868Z,10.67
2018-09-11T14:05:24.805Z,10.20
2018-09-11T14:07:55.311Z,10.20
2018-09-11T14:10:26.013Z,13.07
2018-09-11T14:12:56.154Z,9.03
2018-09-11T14:15:26.649Z,11.80
2018-09-11T14:17:56.752Z,8.93
2018-09-11T14:20:28.197Z,11.33
2018-09-11T14:22:59.258Z,11.20
2018-09-11T14:25:30.074Z,9.10
2018-09-11T14:28:00.174Z,8.83
2018-09-11T14:30:30.938Z,9.27
2018-09-11T14:33:01.086Z,9.90
2018-09-11T14:35:31.208Z,11.10
2018-09-11T14:38:01.319Z,8.37
2018-09-11T14:40:31.458Z,8.17
2018-09-11T14:43:01.561Z,9.47
2018-09-11T14:45:31.684Z,7.80
2018-09-11T14:48:01.905Z,7.03
2018-09-11T14:50:32.136Z,9.33
2018-09-11T14:53:02.289Z,7.83
2018-09-11T14:55:32.977Z,8.07
2018-09-11T14:58:03.781Z,9.17
2018-09-11T15:00:33.946Z,8.33
2018-09-11T15:03:04.481Z,8.80
2018-09-11T15:05:34.630Z,10.33
2018-09-11T15:08:04.876Z,8.57
2018-09-11T15:10:34.989Z,10.73
2018-09-11T15:13:06.430Z,6.10
2018-09-11T15:15:37.688Z,7.70
2018-09-11T15:18:07.805Z,9.27
2018-09-11T15:20:37.929Z,8.40
2018-09-11T15:23:08.151Z,10.10
2018-09-11T15:25:38.309Z,8.80
2018-09-11T15:28:08.660Z,7.37
2018-09-11T15:30:38.751Z,9.30
2018-09-11T15:33:09.615Z,7.07
2018-09-11T15:35:39.763Z,9.00
2018-09-11T15:38:09.947Z,10.17
2018-09-11T15:40:40.083Z,9.20
2018-09-11T15:43:10.968Z,7.73
2018-09-11T15:45:41.087Z,5.93
2018-09-11T15:48:12.418Z,8.03
2018-09-11T15:50:42.580Z,9.87
2018-09-11T15:53:13.333Z,8.23
2018-09-11T15:55:43.467Z,8.07
2018-09-11T15:58:13.531Z,8.03
2018-09-11T16:00:44.958Z,7.17
2018-09-11T16:03:15.072Z,7.33
2018-09-11T16:05:45.277Z,8.73
2018-09-11T16:08:15.393Z,9.87
2018-09-11T16:10:46.329Z,7.90
2018-09-11T16:13:17.012Z,9.33
2018-09-11T16:15:47.177Z,10.50
2018-09-11T16:18:17.276Z,11.87
2018-09-11T16:20:47.412Z,9.33
2018-09-11T16:23:18.125Z,9.30
2018-09-11T16:25:48.889Z,10.27
2018-09-11T16:28:19.812Z,7.97
2018-09-11T16:30:50.604Z,14.63
2018-09-11T16:33:20.763Z,9.97
2018-09-11T16:35:50.907Z,15.33
2018-09-11T16:38:21.124Z,9.30
2018-09-11T16:40:52.000Z,10.37
2018-09-11T16:43:22.080Z,11.73
2018-09-11T16:45:52.896Z,10.13
2018-09-11T16:48:23.016Z,8.97
2018-09-11T16:50:53.607Z,9.77
2018-09-11T16:53:23.716Z,7.47
2018-09-11T16:55:53.812Z,11.93
2018-09-11T16:58:24.745Z,5.73
2018-09-11T17:00:54.876Z,10.53
2018-09-11T17:03:25.115Z,15.27
2018-09-11T17:05:55.248Z,8.67
2018-09-11T17:08:26.116Z,8.17
2018-09-11T17:10:56.724Z,7.70
2018-09-11T17:13:27.544Z,5.33
2018-09-11T17:15:59.005Z,4.77
2018-09-11T17:18:29.049Z,4.93
2018-09-11T17:20:59.078Z,6.23
2018-09-11T17:23:29.170Z,4.43
2018-09-11T17:25:59.244Z,6.07
2018-09-11T17:28:30.030Z,4.63
2018-09-11T17:31:00.115Z,6.30
2018-09-11T17:33:31.042Z,8.10
2018-09-11T17:36:01.693Z,5.97
2018-09-11T17:38:32.400Z,6.33
2018-09-11T17:41:02.472Z,5.83
2018-09-11T17:43:32.932Z,5.97
2018-09-11T17:46:03.036Z,5.93
2018-09-11T17:48:33.100Z,5.77
2018-09-11T17:51:03.136Z,5.73
2018-09-11T17:53:33.184Z,9.20
2018-09-11T17:56:03.241Z,10.93
2018-09-11T17:58:33.349Z,8.07
2018-09-11T18:01:03.409Z,8.73
2018-09-11T18:03:33.441Z,6.83
2018-09-11T18:06:03.516Z,10.90
2018-09-11T18:08:33.664Z,6.63
2018-09-11T18:11:03.756Z,5.97
2018-09-11T18:13:33.808Z,4.57
2018-09-11T18:16:03.953Z,8.63
2018-09-11T18:18:34.016Z,4.67
2018-09-11T18:21:04.081Z,4.13
2018-09-11T18:23:34.400Z,4.43
2018-09-11T18:26:04.481Z,5.13
2018-09-11T18:28:34.528Z,4.83
2018-09-11T18:31:04.600Z,4.17
2018-09-11T18:33:34.625Z,6.23
2018-09-11T18:36:04.724Z,3.33
2018-09-11T18:38:35.429Z,4.10
2018-09-11T18:41:05.704Z,7.60
2018-09-11T18:43:35.768Z,5.97
2018-09-11T18:46:05.899Z,5.10
2018-09-11T18:48:36.712Z,5.03
2018-09-11T18:51:06.916Z,5.90
2018-09-11T18:53:37.027Z,6.97
2018-09-11T18:56:07.149Z,6.47
2018-09-11T18:58:37.225Z,8.60
2018-09-11T19:01:07.284Z,9.10
2018-09-11T19:03:37.257Z,4.70
2018-09-11T19:06:07.362Z,5.10
2018-09-11T19:08:37.464Z,7.53
2018-09-11T19:11:07.638Z,5.70
2018-09-11T19:13:37.604Z,4.60
2018-09-11T19:16:07.760Z,7.50
2018-09-11T19:18:37.868Z,6.30
2018-09-11T19:21:07.960Z,5.07
2018-09-11T19:23:38.196Z,5.67
2018-09-11T19:26:08.290Z,4.53
2018-09-11T19:28:38.366Z,3.63
2018-09-11T19:31:09.047Z,4.47
2018-09-11T19:33:39.024Z,4.37
2018-09-11T19:36:09.006Z,6.70
2018-09-11T19:38:39.056Z,5.47
2018-09-11T19:41:09.096Z,3.47
2018-09-11T19:43:39.204Z,3.20
2018-09-11T19:46:09.178Z,4.60
2018-09-11T19:48:39.280Z,2.07
2018-09-11T19:51:09.364Z,3.17
2018-09-11T19:53:39.444Z,2.40
2018-09-11T19:56:09.659Z,2.50
2018-09-11T19:58:39.739Z,3.00
2018-09-11T20:01:09.772Z,4.40
2018-09-11T20:03:39.873Z,3.03
2018-09-11T20:06:09.992Z,1.80
2018-09-11T20:08:40.056Z,1.60
2018-09-11T20:11:10.083Z,2.00
2018-09-11T20:13:40.061Z,1.97
2018-09-11T20:16:10.125Z,2.93
2018-09-11T20:18:40.980Z,2.33
2018-09-11T20:21:11.017Z,2.40
2018-09-11T20:23:41.771Z,2.50
2018-09-11T20:26:11.872Z,2.27
2018-09-11T20:28:41.880Z,3.57
2018-09-11T20:31:11.940Z,0.90
2018-09-11T20:33:42.576Z,1.70
2018-09-11T20:36:12.690Z,3.47
2018-09-11T20:38:42.844Z,3.73
2018-09-11T20:41:12.935Z,1.33
2018-09-11T20:43:42.996Z,2.50
2018-09-11T20:46:13.148Z,1.57
2018-09-11T20:48:43.228Z,4.10
2018-09-11T20:51:13.884Z,3.27
2018-09-11T20:53:43.964Z,2.23
2018-09-11T20:56:14.672Z,1.37
2018-09-11T20:58:44.752Z,5.43
2018-09-11T21:01:14.857Z,3.87
2018-09-11T21:03:44.934Z,3.73
2018-09-11T21:06:14.901Z,3.77
2018-09-11T21:08:44.937Z,4.77
2018-09-11T21:11:15.028Z,5.73
2018-09-11T21:13:45.370Z,5.43
2018-09-11T21:16:15.436Z,5.37
2018-09-11T21:18:45.520Z,4.77
2018-09-11T21:21:15.588Z,7.50
2018-09-11T21:23:45.669Z,7.40
2018-09-11T21:26:15.733Z,7.33
2018-09-11T21:28:46.672Z,6.80
2018-09-11T21:31:16.892Z,12.83
2018-09-11T21:33:47.110Z,8.03
2018-09-11T21:36:17.196Z,12.67
2018-09-11T21:38:47.285Z,8.63
2018-09-11T21:41:17.324Z,8.57
2018-09-11T21:43:47.356Z,6.20
2018-09-11T21:46:17.569Z,9.60
2018-09-11T21:48:47.676Z,12.20
2018-09-11T21:51:17.760Z,8.67
2018-09-11T21:53:47.875Z,6.43
2018-09-11T21:56:18.201Z,8.63
2018-09-11T21:58:48.284Z,6.13
2018-09-11T22:01:23.696Z,7.57
2018-09-11T22:03:54.484Z,8.63
2018-09-11T22:06:25.468Z,8.47
2018-09-11T22:08:56.361Z,11.53
2018-09-11T22:11:27.184Z,10.90
2018-09-11T22:13:57.252Z,9.57
2018-09-11T22:16:27.331Z,12.73
2018-09-11T22:18:57.396Z,9.67
2018-09-11T22:21:27.495Z,10.33
2018-09-11T22:23:58.285Z,11.07
2018-09-11T22:26:28.349Z,8.30
2018-09-11T22:28:58.522Z,9.27
2018-09-11T22:31:28.948Z,10.90
2018-09-11T22:33:59.054Z,7.33
2018-09-11T22:36:29.196Z,14.23
2018-09-11T22:38:59.912Z,10.83
2018-09-11T22:41:30.020Z,8.40
2018-09-11T22:44:00.092Z,9.97
2018-09-11T22:46:30.234Z,13.17
2018-09-11T22:49:00.436Z,11.10
2018-09-11T22:51:30.504Z,12.70
2018-09-11T22:54:00.625Z,10.80
2018-09-11T22:56:30.780Z,8.63
2018-09-11T22:59:00.904Z,12.60
2018-09-11T23:01:31.005Z,12.67
2018-09-11T23:04:01.148Z,13.03
2018-09-11T23:06:31.768Z,14.37
2018-09-11T23:09:02.198Z,19.40
2018-09-11T23:11:32.391Z,16.23
2018-09-11T23:14:02.484Z,11.87
2018-09-11T23:16:32.668Z,11.93
2018-09-11T23:19:03.241Z,11.27
2018-09-11T23:21:33.724Z,11.07
2018-09-11T23:24:03.824Z,14.50
2018-09-11T23:26:33.946Z,18.27
2018-09-11T23:29:04.220Z,12.27
2018-09-11T23:31:35.033Z,10.43
2018-09-11T23:34:06.197Z,9.47
2018-09-11T23:36:36.283Z,11.33
2018-09-11T23:39:07.488Z,16.60
2018-09-11T23:41:38.056Z,8.43
2018-09-11T23:44:08.589Z,10.70
2018-09-11T23:46:38.676Z,12.77
2018-09-11T23:49:09.365Z,9.93
2018-09-11T23:51:39.626Z,10.67
2018-09-11T23:54:09.697Z,11.20
2018-09-11T23:56:39.773Z,6.50
2018-09-11T23:59:09.850Z,12.50
